sensor_id;sensor_type;location;lat;lon;timestamp;temperature;humidity
65146;DHT22;51730;56.950;24.126;2023-04-26T00:02:12;10.60;99.90
65146;DHT22;51730;56.950;24.126;2023-04-26T00:04:42;10.60;99.90
65146;DHT22;51730;56.950;24.126;2023-04-26T00:07:09;10.40;99.90
65146;DHT22;51730;56.950;24.126;2023-04-26T00:09:37;10.50;99.90
65146;DHT22;51730;56.950;24.126;2023-04-26T00:12:07;10.60;99.90
65146;DHT22;51730;56.950;24.126;2023-04-26T00:14:34;10.60;99.90
65146;DHT22;51730;56.950;24.126;2023-04-26T00:17:03;10.60;99.90
65146;DHT22;51730;56.950;24.126;2023-04-26T00:19:31;10.60;99.90
65146;DHT22;51730;56.950;24.126;2023-04-26T00:21:58;10.30;99.90
65146;DHT22;51730;56.950;24.126;2023-04-26T00:24:25;10.50;99.90
65146;DHT22;51730;56.950;24.126;2023-04-26T00:26:52;10.60;99.90
65146;DHT22;51730;56.950;24.126;2023-04-26T00:29:20;10.60;99.90
65146;DHT22;51730;56.950;24.126;2023-04-26T00:31:47;10.60;99.90
65146;DHT22;51730;56.950;24.126;2023-04-26T00:34:14;10.60;99.90
65146;DHT22;51730;56.950;24.126;2023-04-26T00:36:41;10.40;99.90
65146;DHT22;51730;56.950;24.126;2023-04-26T00:39:09;10.50;99.90
65146;DHT22;51730;56.950;24.126;2023-04-26T00:41:37;10.50;99.90
65146;DHT22;51730;56.950;24.126;2023-04-26T00:44:04;10.60;99.90
65146;DHT22;51730;56.950;24.126;2023-04-26T00:46:32;10.60;99.90
65146;DHT22;51730;56.950;24.126;2023-04-26T00:49:00;10.50;99.90
65146;DHT22;51730;56.950;24.126;2023-04-26T00:51:28;10.70;99.90
65146;DHT22;51730;56.950;24.126;2023-04-26T00:53:56;10.60;99.90
65146;DHT22;51730;56.950;24.126;2023-04-26T00:56:23;10.70;99.90
65146;DHT22;51730;56.950;24.126;2023-04-26T00:58:50;10.70;99.90
65146;DHT22;51730;56.950;24.126;2023-04-26T01:01:22;10.60;99.90
65146;DHT22;51730;56.950;24.126;2023-04-26T01:03:49;10.70;99.90
65146;DHT22;51730;56.950;24.126;2023-04-26T01:06:15;10.60;99.90
65146;DHT22;51730;56.950;24.126;2023-04-26T01:08:45;10.60;99.90
65146;DHT22;51730;56.950;24.126;2023-04-26T01:11:15;10.60;99.90
65146;DHT22;51730;56.950;24.126;2023-04-26T01:13:44;10.60;99.90
65146;DHT22;51730;56.950;24.126;2023-04-26T01:16:12;10.60;99.90
65146;DHT22;51730;56.950;24.126;2023-04-26T01:18:50;10.60;99.90
65146;DHT22;51730;56.950;24.126;2023-04-26T01:21:19;10.50;99.90
65146;DHT22;51730;56.950;24.126;2023-04-26T01:23:52;10.60;99.90
65146;DHT22;51730;56.950;24.126;2023-04-26T01:26:19;10.60;99.90
65146;DHT22;51730;56.950;24.126;2023-04-26T01:28:47;10.60;99.90
65146;DHT22;51730;56.950;24.126;2023-04-26T01:31:20;10.50;99.90
65146;DHT22;51730;56.950;24.126;2023-04-26T01:33:49;10.60;99.90
65146;DHT22;51730;56.950;24.126;2023-04-26T01:36:16;10.60;99.90
65146;DHT22;51730;56.950;24.126;2023-04-26T01:38:46;10.70;99.90
65146;DHT22;51730;56.950;24.126;2023-04-26T01:41:14;10.70;99.90
65146;DHT22;51730;56.950;24.126;2023-04-26T01:43:42;10.50;99.90
65146;DHT22;51730;56.950;24.126;2023-04-26T01:46:11;10.50;99.90
65146;DHT22;51730;56.950;24.126;2023-04-26T01:48:39;10.30;99.90
65146;DHT22;51730;56.950;24.126;2023-04-26T01:51:06;10.30;99.90
65146;DHT22;51730;56.950;24.126;2023-04-26T01:53:33;10.10;99.90
65146;DHT22;51730;56.950;24.126;2023-04-26T01:56:03;10.00;99.90
65146;DHT22;51730;56.950;24.126;2023-04-26T01:58:31;10.10;99.90
65146;DHT22;51730;56.950;24.126;2023-04-26T02:01:04;10.20;99.90
65146;DHT22;51730;56.950;24.126;2023-04-26T02:03:31;10.10;99.90
65146;DHT22;51730;56.950;24.126;2023-04-26T02:05:59;10.10;99.90
65146;DHT22;51730;56.950;24.126;2023-04-26T02:08:26;10.10;99.90
65146;DHT22;51730;56.950;24.126;2023-04-26T02:10:53;10.00;99.90
65146;DHT22;51730;56.950;24.126;2023-04-26T02:13:20;10.00;99.90
65146;DHT22;51730;56.950;24.126;2023-04-26T02:15:48;10.20;99.90
65146;DHT22;51730;56.950;24.126;2023-04-26T02:18:15;10.20;99.90
65146;DHT22;51730;56.950;24.126;2023-04-26T02:20:43;10.40;99.90
65146;DHT22;51730;56.950;24.126;2023-04-26T02:23:11;10.40;99.90
65146;DHT22;51730;56.950;24.126;2023-04-26T02:25:39;10.40;99.90
65146;DHT22;51730;56.950;24.126;2023-04-26T02:28:07;10.50;99.90
65146;DHT22;51730;56.950;24.126;2023-04-26T02:30:36;10.50;99.90
65146;DHT22;51730;56.950;24.126;2023-04-26T02:33:03;10.50;99.90
65146;DHT22;51730;56.950;24.126;2023-04-26T02:35:34;10.50;99.90
65146;DHT22;51730;56.950;24.126;2023-04-26T02:38:02;10.50;99.90
65146;DHT22;51730;56.950;24.126;2023-04-26T02:40:29;10.50;99.90
65146;DHT22;51730;56.950;24.126;2023-04-26T02:42:59;10.40;99.90
65146;DHT22;51730;56.950;24.126;2023-04-26T02:45:26;10.50;99.90
65146;DHT22;51730;56.950;24.126;2023-04-26T02:47:54;10.50;99.90
65146;DHT22;51730;56.950;24.126;2023-04-26T02:50:21;10.50;99.90
65146;DHT22;51730;56.950;24.126;2023-04-26T02:52:48;10.50;99.90
65146;DHT22;51730;56.950;24.126;2023-04-26T02:55:16;10.50;99.90
65146;DHT22;51730;56.950;24.126;2023-04-26T02:57:43;10.50;99.90
65146;DHT22;51730;56.950;24.126;2023-04-26T03:00:10;10.50;99.90
65146;DHT22;51730;56.950;24.126;2023-04-26T03:02:40;10.60;99.90
65146;DHT22;51730;56.950;24.126;2023-04-26T03:05:08;10.40;99.90
65146;DHT22;51730;56.950;24.126;2023-04-26T03:07:37;10.50;99.90
65146;DHT22;51730;56.950;24.126;2023-04-26T03:10:05;10.40;99.90
65146;DHT22;51730;56.950;24.126;2023-04-26T03:12:35;10.50;99.90
65146;DHT22;51730;56.950;24.126;2023-04-26T03:15:03;10.50;99.90
65146;DHT22;51730;56.950;24.126;2023-04-26T03:17:30;10.50;99.90
65146;DHT22;51730;56.950;24.126;2023-04-26T03:19:59;10.40;99.90
65146;DHT22;51730;56.950;24.126;2023-04-26T03:22:28;10.50;99.90
65146;DHT22;51730;56.950;24.126;2023-04-26T03:24:56;10.40;99.90
65146;DHT22;51730;56.950;24.126;2023-04-26T03:27:26;10.40;99.90
65146;DHT22;51730;56.950;24.126;2023-04-26T03:29:54;10.30;99.90
65146;DHT22;51730;56.950;24.126;2023-04-26T03:32:23;10.40;99.90
65146;DHT22;51730;56.950;24.126;2023-04-26T03:34:50;10.50;99.90
65146;DHT22;51730;56.950;24.126;2023-04-26T03:37:19;10.50;99.90
65146;DHT22;51730;56.950;24.126;2023-04-26T03:39:47;10.40;99.90
65146;DHT22;51730;56.950;24.126;2023-04-26T03:42:18;10.30;99.90
65146;DHT22;51730;56.950;24.126;2023-04-26T03:44:47;10.30;99.90
65146;DHT22;51730;56.950;24.126;2023-04-26T03:47:14;10.20;99.90
65146;DHT22;51730;56.950;24.126;2023-04-26T03:49:41;10.10;99.90
65146;DHT22;51730;56.950;24.126;2023-04-26T03:52:13;10.20;99.90
65146;DHT22;51730;56.950;24.126;2023-04-26T03:54:41;10.20;99.90
65146;DHT22;51730;56.950;24.126;2023-04-26T03:57:09;10.30;99.90
65146;DHT22;51730;56.950;24.126;2023-04-26T03:59:36;10.10;99.90
65146;DHT22;51730;56.950;24.126;2023-04-26T04:02:05;10.10;99.90
65146;DHT22;51730;56.950;24.126;2023-04-26T04:04:37;10.00;99.90
65146;DHT22;51730;56.950;24.126;2023-04-26T04:07:05;10.30;99.90
65146;DHT22;51730;56.950;24.126;2023-04-26T04:09:33;10.40;99.90
65146;DHT22;51730;56.950;24.126;2023-04-26T04:12:03;10.40;99.90
65146;DHT22;51730;56.950;24.126;2023-04-26T04:14:30;10.50;99.90
65146;DHT22;51730;56.950;24.126;2023-04-26T04:16:58;10.50;99.90
65146;DHT22;51730;56.950;24.126;2023-04-26T04:19:26;10.50;99.90
65146;DHT22;51730;56.950;24.126;2023-04-26T04:21:54;10.30;99.90
65146;DHT22;51730;56.950;24.126;2023-04-26T04:24:23;10.30;99.90
65146;DHT22;51730;56.950;24.126;2023-04-26T04:26:54;10.30;99.90
65146;DHT22;51730;56.950;24.126;2023-04-26T04:29:21;10.30;99.90
65146;DHT22;51730;56.950;24.126;2023-04-26T04:31:49;10.30;99.90
65146;DHT22;51730;56.950;24.126;2023-04-26T04:34:19;10.40;99.90
65146;DHT22;51730;56.950;24.126;2023-04-26T04:36:49;10.50;99.90
65146;DHT22;51730;56.950;24.126;2023-04-26T04:39:17;10.30;99.90
65146;DHT22;51730;56.950;24.126;2023-04-26T04:41:49;10.40;99.90
65146;DHT22;51730;56.950;24.126;2023-04-26T04:44:19;10.40;99.90
65146;DHT22;51730;56.950;24.126;2023-04-26T04:46:49;10.40;99.90
65146;DHT22;51730;56.950;24.126;2023-04-26T04:49:21;10.40;99.90
65146;DHT22;51730;56.950;24.126;2023-04-26T04:51:50;10.50;99.90
65146;DHT22;51730;56.950;24.126;2023-04-26T04:54:18;10.50;99.90
65146;DHT22;51730;56.950;24.126;2023-04-26T04:56:50;10.50;99.90
65146;DHT22;51730;56.950;24.126;2023-04-26T04:59:17;10.60;99.90
65146;DHT22;51730;56.950;24.126;2023-04-26T05:01:46;10.40;99.90
65146;DHT22;51730;56.950;24.126;2023-04-26T05:04:18;10.40;99.90
65146;DHT22;51730;56.950;24.126;2023-04-26T05:06:45;10.50;99.90
65146;DHT22;51730;56.950;24.126;2023-04-26T05:09:13;10.40;99.90
65146;DHT22;51730;56.950;24.126;2023-04-26T05:11:43;10.40;99.90
65146;DHT22;51730;56.950;24.126;2023-04-26T05:14:14;10.30;99.90
65146;DHT22;51730;56.950;24.126;2023-04-26T05:16:41;10.40;99.90
65146;DHT22;51730;56.950;24.126;2023-04-26T05:19:09;10.40;99.90
65146;DHT22;51730;56.950;24.126;2023-04-26T05:21:37;10.50;99.90
65146;DHT22;51730;56.950;24.126;2023-04-26T05:24:05;10.50;99.90
65146;DHT22;51730;56.950;24.126;2023-04-26T05:26:33;10.50;99.90
65146;DHT22;51730;56.950;24.126;2023-04-26T05:29:03;10.20;99.90
65146;DHT22;51730;56.950;24.126;2023-04-26T05:31:30;10.20;99.90
65146;DHT22;51730;56.950;24.126;2023-04-26T05:33:57;10.20;99.90
65146;DHT22;51730;56.950;24.126;2023-04-26T05:36:26;10.30;99.90
65146;DHT22;51730;56.950;24.126;2023-04-26T05:38:55;10.30;99.90
65146;DHT22;51730;56.950;24.126;2023-04-26T05:41:25;10.20;99.90
65146;DHT22;51730;56.950;24.126;2023-04-26T05:43:54;10.40;99.90
65146;DHT22;51730;56.950;24.126;2023-04-26T05:46:22;10.40;99.90
65146;DHT22;51730;56.950;24.126;2023-04-26T05:48:59;10.50;99.90
65146;DHT22;51730;56.950;24.126;2023-04-26T05:51:29;10.40;99.90
65146;DHT22;51730;56.950;24.126;2023-04-26T05:53:58;10.40;99.90
65146;DHT22;51730;56.950;24.126;2023-04-26T05:56:26;10.50;99.90
65146;DHT22;51730;56.950;24.126;2023-04-26T05:58:54;10.50;99.90
65146;DHT22;51730;56.950;24.126;2023-04-26T06:01:21;10.60;99.90
65146;DHT22;51730;56.950;24.126;2023-04-26T06:03:49;10.60;99.90
65146;DHT22;51730;56.950;24.126;2023-04-26T06:06:17;10.50;99.90
65146;DHT22;51730;56.950;24.126;2023-04-26T06:08:47;10.50;99.90
65146;DHT22;51730;56.950;24.126;2023-04-26T06:11:14;10.20;99.90
65146;DHT22;51730;56.950;24.126;2023-04-26T06:13:41;10.40;99.90
65146;DHT22;51730;56.950;24.126;2023-04-26T06:16:08;10.40;99.90
65146;DHT22;51730;56.950;24.126;2023-04-26T06:18:36;10.50;99.90
65146;DHT22;51730;56.950;24.126;2023-04-26T06:21:07;10.60;99.90
65146;DHT22;51730;56.950;24.126;2023-04-26T06:23:40;10.70;99.90
65146;DHT22;51730;56.950;24.126;2023-04-26T06:26:21;10.70;99.90
65146;DHT22;51730;56.950;24.126;2023-04-26T06:28:48;10.70;99.90
65146;DHT22;51730;56.950;24.126;2023-04-26T06:31:15;10.70;99.90
65146;DHT22;51730;56.950;24.126;2023-04-26T06:33:46;10.80;99.90
65146;DHT22;51730;56.950;24.126;2023-04-26T06:36:14;10.80;99.90
65146;DHT22;51730;56.950;24.126;2023-04-26T06:38:46;10.80;99.90
65146;DHT22;51730;56.950;24.126;2023-04-26T06:41:13;10.80;99.90
65146;DHT22;51730;56.950;24.126;2023-04-26T06:43:40;10.60;99.90
65146;DHT22;51730;56.950;24.126;2023-04-26T06:46:07;10.80;99.90
65146;DHT22;51730;56.950;24.126;2023-04-26T06:48:37;10.80;99.90
65146;DHT22;51730;56.950;24.126;2023-04-26T06:51:06;10.50;98.10
65146;DHT22;51730;56.950;24.126;2023-04-26T06:53:33;10.80;96.30
65146;DHT22;51730;56.950;24.126;2023-04-26T06:56:02;10.90;95.10
65146;DHT22;51730;56.950;24.126;2023-04-26T06:58:33;10.80;94.50
65146;DHT22;51730;56.950;24.126;2023-04-26T07:01:02;10.80;95.30
65146;DHT22;51730;56.950;24.126;2023-04-26T07:03:29;10.70;96.30
65146;DHT22;51730;56.950;24.126;2023-04-26T07:05:56;10.80;97.80
65146;DHT22;51730;56.950;24.126;2023-04-26T07:08:27;11.00;97.50
65146;DHT22;51730;56.950;24.126;2023-04-26T07:10:54;11.00;97.60
65146;DHT22;51730;56.950;24.126;2023-04-26T07:13:21;11.00;97.80
65146;DHT22;51730;56.950;24.126;2023-04-26T07:15:52;11.00;98.50
65146;DHT22;51730;56.950;24.126;2023-04-26T07:18:21;11.10;97.50
65146;DHT22;51730;56.950;24.126;2023-04-26T07:20:51;11.20;98.00
65146;DHT22;51730;56.950;24.126;2023-04-26T07:23:18;11.30;97.90
65146;DHT22;51730;56.950;24.126;2023-04-26T07:25:47;11.30;98.70
65146;DHT22;51730;56.950;24.126;2023-04-26T07:28:15;11.30;98.60
65146;DHT22;51730;56.950;24.126;2023-04-26T07:30:42;11.30;99.40
65146;DHT22;51730;56.950;24.126;2023-04-26T07:33:09;11.20;99.20
65146;DHT22;51730;56.950;24.126;2023-04-26T07:35:36;11.00;99.30
65146;DHT22;51730;56.950;24.126;2023-04-26T07:38:03;11.20;98.80
65146;DHT22;51730;56.950;24.126;2023-04-26T07:40:30;11.10;97.50
65146;DHT22;51730;56.950;24.126;2023-04-26T07:42:59;11.00;97.80
65146;DHT22;51730;56.950;24.126;2023-04-26T07:45:28;10.90;98.00
65146;DHT22;51730;56.950;24.126;2023-04-26T07:47:56;10.90;96.60
65146;DHT22;51730;56.950;24.126;2023-04-26T07:50:27;10.90;95.40
65146;DHT22;51730;56.950;24.126;2023-04-26T07:52:55;11.00;93.20
65146;DHT22;51730;56.950;24.126;2023-04-26T07:55:23;11.10;92.50
65146;DHT22;51730;56.950;24.126;2023-04-26T07:57:58;11.20;91.90
65146;DHT22;51730;56.950;24.126;2023-04-26T08:00:25;11.30;92.70
65146;DHT22;51730;56.950;24.126;2023-04-26T08:02:52;11.40;91.90
65146;DHT22;51730;56.950;24.126;2023-04-26T08:05:19;11.30;92.00
65146;DHT22;51730;56.950;24.126;2023-04-26T08:07:47;11.30;91.70
65146;DHT22;51730;56.950;24.126;2023-04-26T08:10:14;11.30;93.40
65146;DHT22;51730;56.950;24.126;2023-04-26T08:12:41;11.30;94.50
65146;DHT22;51730;56.950;24.126;2023-04-26T08:15:10;11.40;95.20
65146;DHT22;51730;56.950;24.126;2023-04-26T08:17:39;11.40;96.00
65146;DHT22;51730;56.950;24.126;2023-04-26T08:20:07;11.60;94.30
65146;DHT22;51730;56.950;24.126;2023-04-26T08:22:35;11.60;93.80
65146;DHT22;51730;56.950;24.126;2023-04-26T08:25:03;11.70;93.10
65146;DHT22;51730;56.950;24.126;2023-04-26T08:27:31;11.60;91.40
65146;DHT22;51730;56.950;24.126;2023-04-26T08:30:00;11.40;92.20
65146;DHT22;51730;56.950;24.126;2023-04-26T08:32:27;11.20;93.90
65146;DHT22;51730;56.950;24.126;2023-04-26T08:34:55;11.30;94.60
65146;DHT22;51730;56.950;24.126;2023-04-26T08:37:22;11.40;94.00
65146;DHT22;51730;56.950;24.126;2023-04-26T08:39:57;11.40;92.50
65146;DHT22;51730;56.950;24.126;2023-04-26T08:42:26;11.30;93.40
65146;DHT22;51730;56.950;24.126;2023-04-26T08:45:01;11.50;93.30
65146;DHT22;51730;56.950;24.126;2023-04-26T08:47:45;11.70;91.10
65146;DHT22;51730;56.950;24.126;2023-04-26T08:50:14;11.70;90.00
65146;DHT22;51730;56.950;24.126;2023-04-26T08:52:41;11.70;89.50
65146;DHT22;51730;56.950;24.126;2023-04-26T08:55:09;11.60;90.00
65146;DHT22;51730;56.950;24.126;2023-04-26T08:57:36;11.60;90.30
65146;DHT22;51730;56.950;24.126;2023-04-26T09:00:05;11.50;90.70
65146;DHT22;51730;56.950;24.126;2023-04-26T09:02:36;11.30;90.90
65146;DHT22;51730;56.950;24.126;2023-04-26T09:05:04;11.40;90.40
65146;DHT22;51730;56.950;24.126;2023-04-26T09:07:35;11.40;90.20
65146;DHT22;51730;56.950;24.126;2023-04-26T09:10:05;11.40;90.60
65146;DHT22;51730;56.950;24.126;2023-04-26T09:12:37;11.40;90.90
65146;DHT22;51730;56.950;24.126;2023-04-26T09:15:05;11.40;91.60
65146;DHT22;51730;56.950;24.126;2023-04-26T09:17:48;11.40;91.40
65146;DHT22;51730;56.950;24.126;2023-04-26T09:20:20;11.40;91.60
65146;DHT22;51730;56.950;24.126;2023-04-26T09:22:53;11.10;91.60
65146;DHT22;51730;56.950;24.126;2023-04-26T09:25:35;11.30;91.10
65146;DHT22;51730;56.950;24.126;2023-04-26T09:28:19;11.50;90.30
65146;DHT22;51730;56.950;24.126;2023-04-26T09:30:49;11.60;89.60
65146;DHT22;51730;56.950;24.126;2023-04-26T09:33:16;11.60;90.10
65146;DHT22;51730;56.950;24.126;2023-04-26T09:35:46;11.60;90.20
65146;DHT22;51730;56.950;24.126;2023-04-26T09:38:16;11.40;87.40
65146;DHT22;51730;56.950;24.126;2023-04-26T09:40:45;11.40;88.30
65146;DHT22;51730;56.950;24.126;2023-04-26T09:45:43;11.50;90.30
65146;DHT22;51730;56.950;24.126;2023-04-26T09:48:13;11.70;90.30
65146;DHT22;51730;56.950;24.126;2023-04-26T09:50:43;11.60;91.00
65146;DHT22;51730;56.950;24.126;2023-04-26T09:53:23;11.50;91.00
65146;DHT22;51730;56.950;24.126;2023-04-26T09:55:52;11.40;91.60
65146;DHT22;51730;56.950;24.126;2023-04-26T09:58:23;11.40;91.60
65146;DHT22;51730;56.950;24.126;2023-04-26T10:00:50;11.40;91.60
65146;DHT22;51730;56.950;24.126;2023-04-26T10:03:18;11.30;92.00
65146;DHT22;51730;56.950;24.126;2023-04-26T10:05:50;11.30;91.50
65146;DHT22;51730;56.950;24.126;2023-04-26T10:08:19;11.40;90.70
65146;DHT22;51730;56.950;24.126;2023-04-26T10:10:46;11.40;91.70
65146;DHT22;51730;56.950;24.126;2023-04-26T10:13:15;11.40;92.00
65146;DHT22;51730;56.950;24.126;2023-04-26T10:15:47;11.30;92.00
65146;DHT22;51730;56.950;24.126;2023-04-26T10:18:15;11.40;92.70
65146;DHT22;51730;56.950;24.126;2023-04-26T10:20:46;11.30;93.10
65146;DHT22;51730;56.950;24.126;2023-04-26T10:23:18;11.40;93.50
65146;DHT22;51730;56.950;24.126;2023-04-26T10:25:52;11.30;94.40
65146;DHT22;51730;56.950;24.126;2023-04-26T10:31:09;11.30;95.10
65146;DHT22;51730;56.950;24.126;2023-04-26T10:33:37;11.30;96.20
65146;DHT22;51730;56.950;24.126;2023-04-26T10:38:35;11.30;96.40
65146;DHT22;51730;56.950;24.126;2023-04-26T10:43:49;11.30;96.10
65146;DHT22;51730;56.950;24.126;2023-04-26T10:49:13;11.30;95.20
65146;DHT22;51730;56.950;24.126;2023-04-26T10:54:43;11.50;94.90
65146;DHT22;51730;56.950;24.126;2023-04-26T10:57:11;11.60;94.50
65146;DHT22;51730;56.950;24.126;2023-04-26T10:59:38;11.50;95.20
65146;DHT22;51730;56.950;24.126;2023-04-26T11:05:08;11.20;98.00
65146;DHT22;51730;56.950;24.126;2023-04-26T11:07:35;11.10;98.90
65146;DHT22;51730;56.950;24.126;2023-04-26T11:10:09;11.10;99.20
65146;DHT22;51730;56.950;24.126;2023-04-26T11:12:40;11.00;99.40
65146;DHT22;51730;56.950;24.126;2023-04-26T11:15:07;11.00;99.90
65146;DHT22;51730;56.950;24.126;2023-04-26T11:17:39;11.00;99.90
65146;DHT22;51730;56.950;24.126;2023-04-26T11:20:14;11.00;99.90
65146;DHT22;51730;56.950;24.126;2023-04-26T11:22:42;11.00;99.90
65146;DHT22;51730;56.950;24.126;2023-04-26T11:25:10;10.90;99.90
65146;DHT22;51730;56.950;24.126;2023-04-26T11:27:44;10.90;99.90
65146;DHT22;51730;56.950;24.126;2023-04-26T11:30:13;10.90;99.90
65146;DHT22;51730;56.950;24.126;2023-04-26T11:32:47;10.90;99.90
65146;DHT22;51730;56.950;24.126;2023-04-26T11:35:14;10.80;99.90
65146;DHT22;51730;56.950;24.126;2023-04-26T11:37:43;10.80;99.90
65146;DHT22;51730;56.950;24.126;2023-04-26T11:40:14;10.70;99.90
65146;DHT22;51730;56.950;24.126;2023-04-26T11:42:42;10.80;99.90
65146;DHT22;51730;56.950;24.126;2023-04-26T11:45:10;10.70;99.90
65146;DHT22;51730;56.950;24.126;2023-04-26T11:47:41;10.60;99.90
65146;DHT22;51730;56.950;24.126;2023-04-26T11:50:08;10.70;99.90
65146;DHT22;51730;56.950;24.126;2023-04-26T11:52:35;10.60;99.90
65146;DHT22;51730;56.950;24.126;2023-04-26T11:55:05;10.70;99.90
65146;DHT22;51730;56.950;24.126;2023-04-26T11:57:35;10.70;99.90
65146;DHT22;51730;56.950;24.126;2023-04-26T12:00:14;10.70;99.90
65146;DHT22;51730;56.950;24.126;2023-04-26T12:02:47;10.70;99.90
65146;DHT22;51730;56.950;24.126;2023-04-26T12:05:25;10.60;99.90
65146;DHT22;51730;56.950;24.126;2023-04-26T12:07:54;10.50;99.90
65146;DHT22;51730;56.950;24.126;2023-04-26T12:10:40;10.40;99.90
65146;DHT22;51730;56.950;24.126;2023-04-26T12:13:14;10.30;99.90
65146;DHT22;51730;56.950;24.126;2023-04-26T12:15:41;10.30;99.90
65146;DHT22;51730;56.950;24.126;2023-04-26T12:18:11;10.20;99.90
65146;DHT22;51730;56.950;24.126;2023-04-26T12:20:43;10.20;99.90
65146;DHT22;51730;56.950;24.126;2023-04-26T12:23:15;10.10;99.90
65146;DHT22;51730;56.950;24.126;2023-04-26T12:25:53;9.90;99.90
65146;DHT22;51730;56.950;24.126;2023-04-26T12:28:22;9.80;99.90
65146;DHT22;51730;56.950;24.126;2023-04-26T12:30:49;9.90;99.90
65146;DHT22;51730;56.950;24.126;2023-04-26T12:33:20;10.00;99.90
65146;DHT22;51730;56.950;24.126;2023-04-26T12:35:51;10.00;99.90
65146;DHT22;51730;56.950;24.126;2023-04-26T12:38:18;10.00;99.90
65146;DHT22;51730;56.950;24.126;2023-04-26T12:40:46;10.10;99.90
65146;DHT22;51730;56.950;24.126;2023-04-26T12:43:14;10.10;99.90
65146;DHT22;51730;56.950;24.126;2023-04-26T12:45:42;10.00;99.90
65146;DHT22;51730;56.950;24.126;2023-04-26T12:48:09;10.10;99.90
65146;DHT22;51730;56.950;24.126;2023-04-26T12:50:37;10.10;99.90
65146;DHT22;51730;56.950;24.126;2023-04-26T12:53:05;9.90;99.90
65146;DHT22;51730;56.950;24.126;2023-04-26T12:55:32;10.00;99.90
65146;DHT22;51730;56.950;24.126;2023-04-26T12:57:59;9.90;99.90
65146;DHT22;51730;56.950;24.126;2023-04-26T13:00:26;10.00;99.90
65146;DHT22;51730;56.950;24.126;2023-04-26T13:02:53;9.80;99.90
65146;DHT22;51730;56.950;24.126;2023-04-26T13:05:20;9.80;99.90
65146;DHT22;51730;56.950;24.126;2023-04-26T13:07:48;9.80;99.90
65146;DHT22;51730;56.950;24.126;2023-04-26T13:10:15;10.00;99.90
65146;DHT22;51730;56.950;24.126;2023-04-26T13:12:44;10.00;99.90
65146;DHT22;51730;56.950;24.126;2023-04-26T13:15:13;9.90;99.90
65146;DHT22;51730;56.950;24.126;2023-04-26T13:17:43;9.80;99.90
65146;DHT22;51730;56.950;24.126;2023-04-26T13:20:11;9.80;99.90
65146;DHT22;51730;56.950;24.126;2023-04-26T13:22:39;9.80;99.90
65146;DHT22;51730;56.950;24.126;2023-04-26T13:25:08;9.80;99.90
65146;DHT22;51730;56.950;24.126;2023-04-26T13:27:35;9.70;99.90
65146;DHT22;51730;56.950;24.126;2023-04-26T13:30:03;9.60;99.90
65146;DHT22;51730;56.950;24.126;2023-04-26T13:32:30;9.60;99.90
65146;DHT22;51730;56.950;24.126;2023-04-26T13:34:58;9.60;99.90
65146;DHT22;51730;56.950;24.126;2023-04-26T13:37:27;9.50;99.90
65146;DHT22;51730;56.950;24.126;2023-04-26T13:39:54;9.60;99.90
65146;DHT22;51730;56.950;24.126;2023-04-26T13:42:22;9.60;99.90
65146;DHT22;51730;56.950;24.126;2023-04-26T13:45:00;9.60;99.90
65146;DHT22;51730;56.950;24.126;2023-04-26T13:47:32;9.50;99.90
65146;DHT22;51730;56.950;24.126;2023-04-26T13:50:00;9.50;99.90
65146;DHT22;51730;56.950;24.126;2023-04-26T13:52:27;9.50;99.90
65146;DHT22;51730;56.950;24.126;2023-04-26T13:54:54;9.40;99.90
65146;DHT22;51730;56.950;24.126;2023-04-26T13:57:22;9.40;99.90
65146;DHT22;51730;56.950;24.126;2023-04-26T13:59:49;9.40;99.90
65146;DHT22;51730;56.950;24.126;2023-04-26T14:02:16;9.40;99.90
65146;DHT22;51730;56.950;24.126;2023-04-26T14:04:44;9.40;99.90
65146;DHT22;51730;56.950;24.126;2023-04-26T14:07:12;9.20;99.90
65146;DHT22;51730;56.950;24.126;2023-04-26T14:09:39;9.30;99.90
65146;DHT22;51730;56.950;24.126;2023-04-26T14:12:07;9.30;99.90
65146;DHT22;51730;56.950;24.126;2023-04-26T14:14:36;9.40;99.90
65146;DHT22;51730;56.950;24.126;2023-04-26T14:17:04;9.30;99.90
65146;DHT22;51730;56.950;24.126;2023-04-26T14:19:31;9.30;99.90
65146;DHT22;51730;56.950;24.126;2023-04-26T14:22:00;9.20;99.90
65146;DHT22;51730;56.950;24.126;2023-04-26T14:24:30;9.20;99.90
65146;DHT22;51730;56.950;24.126;2023-04-26T14:27:00;9.10;99.90
65146;DHT22;51730;56.950;24.126;2023-04-26T14:29:29;9.00;99.90
65146;DHT22;51730;56.950;24.126;2023-04-26T14:31:58;8.90;99.90
65146;DHT22;51730;56.950;24.126;2023-04-26T14:34:25;8.90;99.90
65146;DHT22;51730;56.950;24.126;2023-04-26T14:36:52;8.90;99.90
65146;DHT22;51730;56.950;24.126;2023-04-26T14:39:22;8.90;99.90
65146;DHT22;51730;56.950;24.126;2023-04-26T14:41:52;8.90;99.90
65146;DHT22;51730;56.950;24.126;2023-04-26T14:44:21;8.80;99.90
65146;DHT22;51730;56.950;24.126;2023-04-26T14:46:49;8.90;99.90
65146;DHT22;51730;56.950;24.126;2023-04-26T14:49:16;8.90;99.90
65146;DHT22;51730;56.950;24.126;2023-04-26T14:51:42;9.00;99.90
65146;DHT22;51730;56.950;24.126;2023-04-26T14:54:10;9.00;99.90
65146;DHT22;51730;56.950;24.126;2023-04-26T14:56:39;9.00;99.90
65146;DHT22;51730;56.950;24.126;2023-04-26T14:59:08;9.10;99.90
65146;DHT22;51730;56.950;24.126;2023-04-26T15:01:35;9.00;99.90
65146;DHT22;51730;56.950;24.126;2023-04-26T15:04:03;9.00;99.90
65146;DHT22;51730;56.950;24.126;2023-04-26T15:06:33;8.90;99.90
65146;DHT22;51730;56.950;24.126;2023-04-26T15:09:00;8.80;99.90
65146;DHT22;51730;56.950;24.126;2023-04-26T15:11:28;9.10;99.90
65146;DHT22;51730;56.950;24.126;2023-04-26T15:13:56;9.20;99.90
65146;DHT22;51730;56.950;24.126;2023-04-26T15:16:28;9.20;99.90
65146;DHT22;51730;56.950;24.126;2023-04-26T15:18:57;9.30;99.90
65146;DHT22;51730;56.950;24.126;2023-04-26T15:21:24;9.30;99.90
65146;DHT22;51730;56.950;24.126;2023-04-26T15:23:53;9.30;99.90
65146;DHT22;51730;56.950;24.126;2023-04-26T15:26:24;9.40;99.90
65146;DHT22;51730;56.950;24.126;2023-04-26T15:28:54;9.50;99.90
65146;DHT22;51730;56.950;24.126;2023-04-26T15:31:22;9.40;99.90
65146;DHT22;51730;56.950;24.126;2023-04-26T15:33:50;9.30;99.90
65146;DHT22;51730;56.950;24.126;2023-04-26T15:36:20;9.30;99.90
65146;DHT22;51730;56.950;24.126;2023-04-26T15:38:54;9.50;99.90
65146;DHT22;51730;56.950;24.126;2023-04-26T15:41:25;9.50;99.90
65146;DHT22;51730;56.950;24.126;2023-04-26T15:43:55;9.70;99.90
65146;DHT22;51730;56.950;24.126;2023-04-26T15:46:22;9.70;99.90
65146;DHT22;51730;56.950;24.126;2023-04-26T15:48:52;9.70;99.90
65146;DHT22;51730;56.950;24.126;2023-04-26T15:51:19;9.60;99.90